Terminal Aerodrome Forecast
Issued by NWS

Home | Current Version | Previous Version | Text Only | Print | Product List | Glossary On
Versions: 1 2 3 4 5 6 7 8 9 10 11 12 13 14 15 16 17 18 19 20 21 22 23 24 25 26 27 28 29 30 31 32 33 34 35 36 37 38 39 40 41 42 43
000
FTUS41 KBOX 080545
TAFBAF
TAF
KBAF 080545Z 0806/0906 20007KT P6SM SCT250
     FM081000 20006KT 6SM BR SCT020 BKN050
     FM081200 21005KT 3SM BR OVC060
     FM081400 25006KT P6SM OVC020
     FM081600 27007KT P6SM VCTS OVC025CB
     FM081800 29008KT P6SM OVC025
     FM081900 29008KT P6SM BKN035=

USA.gov is the U.S. government's official web portal to all federal, state and local government web resources and services.